createdAt,value
2018-04-11T00:01:44.234Z,12.30
2018-04-11T00:04:13.247Z,12.20
2018-04-11T00:06:41.509Z,12.20
2018-04-11T00:09:10.514Z,12.10
2018-04-11T00:11:38.771Z,12.10
2018-04-11T00:14:07.779Z,12.20
2018-04-11T00:16:36.026Z,12.10
2018-04-11T00:19:04.291Z,12.10
2018-04-11T00:21:32.529Z,12.10
2018-04-11T00:24:00.809Z,12.20
2018-04-11T00:26:29.054Z,12.20
2018-04-11T00:28:58.097Z,12.10
2018-04-11T00:31:26.342Z,12.10
2018-04-11T00:33:54.597Z,12.10
2018-04-11T00:36:23.609Z,12.10
2018-04-11T00:38:51.864Z,12.10
2018-04-11T00:41:20.901Z,12.10
2018-04-11T00:43:49.170Z,12.10
2018-04-11T00:46:17.433Z,12.20
2018-04-11T00:48:45.698Z,12.10
2018-04-11T00:51:13.961Z,12.10
2018-04-11T00:53:42.973Z,12.10
2018-04-11T00:56:12.089Z,12.00
2018-04-11T00:58:40.349Z,12.00
2018-04-11T01:01:08.751Z,12.00
2018-04-11T01:03:37.013Z,12.00
2018-04-11T01:06:05.286Z,12.00
2018-04-11T01:08:33.572Z,12.00
2018-04-11T01:11:01.814Z,12.00
2018-04-11T01:13:30.074Z,12.00
2018-04-11T01:15:59.104Z,12.00
2018-04-11T01:18:27.346Z,12.00
2018-04-11T01:20:56.406Z,12.00
2018-04-11T01:23:24.660Z,12.00
2018-04-11T01:25:52.921Z,11.90
2018-04-11T01:28:21.161Z,12.00
2018-04-11T01:30:50.186Z,12.00
2018-04-11T01:33:18.434Z,11.90
2018-04-11T01:35:47.458Z,11.90
2018-04-11T01:38:15.699Z,11.90
2018-04-11T01:40:44.724Z,11.90
2018-04-11T01:43:12.973Z,11.90
2018-04-11T01:45:41.990Z,11.90
2018-04-11T01:48:10.243Z,11.90
2018-04-11T01:50:39.255Z,11.90
2018-04-11T01:53:07.513Z,11.90
2018-04-11T01:55:36.525Z,11.90
2018-04-11T01:58:04.813Z,11.90
2018-04-11T02:00:33.054Z,11.90
2018-04-11T02:03:02.079Z,11.80
2018-04-11T02:05:30.334Z,11.80
2018-04-11T02:07:59.359Z,11.80
2018-04-11T02:10:27.610Z,11.80
2018-04-11T02:12:55.880Z,11.80
2018-04-11T02:15:24.899Z,11.80
2018-04-11T02:17:53.151Z,11.70
2018-04-11T02:20:22.167Z,11.70
2018-04-11T02:22:50.421Z,11.70
2018-04-11T02:25:19.430Z,11.70
2018-04-11T02:27:47.695Z,11.60
2018-04-11T02:30:15.959Z,11.60
2018-04-11T02:32:44.969Z,11.60
2018-04-11T02:35:13.245Z,11.60
2018-04-11T02:37:41.488Z,11.60
2018-04-11T02:40:09.746Z,11.60
2018-04-11T02:42:37.991Z,11.50
2018-04-11T02:45:06.302Z,11.50
2018-04-11T02:47:34.511Z,11.40
2018-04-11T02:50:03.570Z,11.40
2018-04-11T02:52:31.815Z,11.40
2018-04-11T02:55:00.053Z,11.30
2018-04-11T02:57:29.077Z,11.30
2018-04-11T02:59:57.319Z,11.30
2018-04-11T03:02:26.349Z,11.20
2018-04-11T03:04:54.611Z,11.20
2018-04-11T03:07:23.618Z,11.20
2018-04-11T03:09:51.874Z,11.20
2018-04-11T03:12:20.896Z,11.10
2018-04-11T03:14:49.138Z,11.10
2018-04-11T03:17:18.165Z,10.90
2018-04-11T03:19:46.407Z,10.80
2018-04-11T03:22:15.433Z,10.90
2018-04-11T03:24:43.673Z,10.90
2018-04-11T03:27:12.700Z,10.90
2018-04-11T03:29:40.938Z,10.90
2018-04-11T03:32:09.972Z,10.90
2018-04-11T03:34:38.211Z,10.80
2018-04-11T03:37:07.223Z,10.90
2018-04-11T03:39:35.472Z,10.90
2018-04-11T03:42:04.534Z,10.90
2018-04-11T03:44:32.748Z,10.90
2018-04-11T03:47:01.785Z,10.90
2018-04-11T03:49:30.046Z,10.90
2018-04-11T03:51:58.287Z,10.70
2018-04-11T03:54:27.302Z,10.80
2018-04-11T03:56:55.580Z,10.80
2018-04-11T03:59:23.830Z,10.90
2018-04-11T04:01:52.852Z,10.70
2018-04-11T04:04:21.102Z,10.70
2018-04-11T04:06:50.118Z,10.80
2018-04-11T04:09:18.390Z,10.80
2018-04-11T04:11:46.635Z,10.60
2018-04-11T04:14:26.721Z,10.70
2018-04-11T04:17:06.847Z,10.70
2018-04-11T04:19:46.703Z,10.80
2018-04-11T04:22:15.706Z,10.70
2018-04-11T04:24:44.721Z,10.70
2018-04-11T04:27:12.972Z,10.60
2018-04-11T04:29:41.984Z,10.70
2018-04-11T04:32:10.246Z,10.70
2018-04-11T04:34:39.261Z,10.60
2018-04-11T04:37:07.513Z,10.50
2018-04-11T04:39:35.767Z,10.60
2018-04-11T04:42:04.033Z,10.60
2018-04-11T04:44:32.306Z,10.60
2018-04-11T04:47:00.552Z,10.40
2018-04-11T04:49:28.783Z,10.40
2018-04-11T04:51:57.811Z,10.50
2018-04-11T04:54:26.079Z,10.50
2018-04-11T04:56:54.319Z,10.50
2018-04-11T04:59:22.670Z,10.60
2018-04-11T05:01:50.950Z,10.50
2018-04-11T05:04:20.042Z,10.20
2018-04-11T05:06:48.266Z,10.20
2018-04-11T05:09:16.502Z,10.30
2018-04-11T05:11:44.766Z,10.40
2018-04-11T05:14:13.033Z,10.50
2018-04-11T05:16:41.284Z,10.60
2018-04-11T05:19:09.538Z,10.70
2018-04-11T05:21:38.564Z,10.60
2018-04-11T05:24:06.815Z,10.60
2018-04-11T05:26:35.076Z,10.60
2018-04-11T05:29:04.094Z,10.70
2018-04-11T05:31:32.409Z,10.70
2018-04-11T05:34:00.642Z,10.70
2018-04-11T05:36:28.898Z,10.80
2018-04-11T05:38:57.917Z,10.70
2018-04-11T05:41:26.183Z,10.70
2018-04-11T05:43:54.521Z,10.70
2018-04-11T05:46:22.755Z,10.80
2018-04-11T05:48:51.031Z,10.80
2018-04-11T05:51:19.270Z,10.80
2018-04-11T05:53:48.320Z,10.80
2018-04-11T05:56:16.575Z,10.80
2018-04-11T05:58:44.838Z,10.80
2018-04-11T06:01:13.839Z,10.80
2018-04-11T06:03:42.090Z,10.80
2018-04-11T06:06:11.120Z,10.90
2018-04-11T06:08:39.357Z,10.90
2018-04-11T06:11:08.386Z,11.10
2018-04-11T06:13:36.636Z,11.00
2018-04-11T06:16:04.930Z,11.10
2018-04-11T06:18:33.186Z,11.10
2018-04-11T06:21:02.194Z,11.10
2018-04-11T06:23:30.467Z,11.10
2018-04-11T06:25:58.720Z,11.20
2018-04-11T06:28:27.757Z,11.10
2018-04-11T06:30:56.004Z,11.10
2018-04-11T06:33:24.268Z,11.20
2018-04-11T06:35:52.518Z,11.40
2018-04-11T06:38:20.805Z,11.40
2018-04-11T06:40:49.820Z,11.60
2018-04-11T06:43:18.864Z,11.70
2018-04-11T06:45:47.112Z,11.70
2018-04-11T06:48:15.483Z,11.80
2018-04-11T06:50:43.759Z,11.70
2018-04-11T06:53:12.079Z,11.80
2018-04-11T06:55:40.362Z,11.90
2018-04-11T06:58:08.613Z,11.80
2018-04-11T07:00:37.607Z,11.90
2018-04-11T07:03:06.666Z,12.00
2018-04-11T07:05:34.932Z,12.00
2018-04-11T07:08:03.939Z,11.90
2018-04-11T07:10:32.214Z,11.90
2018-04-11T07:13:00.488Z,12.40
2018-04-11T07:15:28.752Z,12.30
2018-04-11T07:17:57.786Z,12.60
2018-04-11T07:20:26.054Z,12.60
2018-04-11T07:22:54.319Z,13.10
2018-04-11T07:25:22.580Z,13.20
2018-04-11T07:27:50.847Z,13.60
2018-04-11T07:30:19.261Z,13.90
2018-04-11T07:32:47.526Z,14.10
2018-04-11T07:35:15.771Z,14.20
2018-04-11T07:37:44.031Z,14.50
2018-04-11T07:40:12.301Z,15.70
2018-04-11T07:42:40.586Z,19.00
2018-04-11T07:45:08.838Z,22.40
2018-04-11T07:47:37.110Z,25.50
2018-04-11T07:50:05.346Z,27.00
2018-04-11T07:52:33.608Z,27.40
2018-04-11T07:55:02.639Z,27.80
2018-04-11T07:57:30.955Z,27.70
2018-04-11T07:59:59.248Z,28.10
2018-04-11T08:02:27.490Z,28.30
2018-04-11T08:04:55.766Z,28.40
2018-04-11T08:07:24.028Z,28.20
2018-04-11T08:09:52.299Z,28.30
2018-04-11T08:12:20.562Z,28.50
2018-04-11T08:14:48.881Z,27.90
2018-04-11T08:17:17.141Z,26.80
2018-04-11T08:19:45.418Z,26.90
2018-04-11T08:22:13.695Z,27.00
2018-04-11T08:24:41.994Z,25.90
2018-04-11T08:27:10.275Z,25.20
2018-04-11T08:29:38.532Z,23.90
2018-04-11T08:32:06.878Z,21.20
2018-04-11T08:34:35.926Z,18.00
2018-04-11T08:37:06.042Z,17.90
2018-04-11T08:39:34.292Z,17.10
2018-04-11T08:42:02.543Z,16.90
2018-04-11T08:44:30.786Z,16.70
2018-04-11T08:46:59.048Z,16.60
2018-04-11T08:49:27.286Z,16.70
2018-04-11T08:51:55.541Z,16.90
2018-04-11T08:54:23.780Z,16.70
2018-04-11T08:56:52.043Z,16.70
2018-04-11T08:59:20.313Z,16.60
2018-04-11T09:01:48.697Z,16.50
2018-04-11T09:04:16.968Z,16.50
2018-04-11T09:06:45.219Z,16.30
2018-04-11T09:09:13.487Z,16.20
2018-04-11T09:11:41.779Z,16.00
2018-04-11T09:14:10.039Z,15.90
2018-04-11T09:16:38.284Z,15.80
2018-04-11T09:19:07.307Z,16.00
2018-04-11T09:21:35.574Z,15.90
2018-04-11T09:24:03.863Z,16.00
2018-04-11T09:26:32.099Z,16.10
2018-04-11T09:29:01.157Z,16.20
2018-04-11T09:31:29.411Z,16.20
2018-04-11T09:33:57.680Z,16.20
2018-04-11T09:36:25.919Z,16.00
2018-04-11T09:38:54.958Z,16.20
2018-04-11T09:41:23.217Z,16.10
2018-04-11T09:43:51.508Z,16.10
2018-04-11T09:46:19.788Z,16.10
2018-04-11T09:48:48.056Z,16.00
2018-04-11T09:51:16.302Z,16.20
2018-04-11T09:53:44.569Z,16.50
2018-04-11T09:56:12.827Z,16.60
2018-04-11T09:58:41.152Z,16.60
2018-04-11T10:01:09.437Z,16.60
2018-04-11T10:03:43.292Z,16.60
2018-04-11T10:06:11.545Z,16.40
2018-04-11T10:08:39.830Z,16.40
2018-04-11T10:11:08.514Z,16.40
2018-04-11T10:13:36.747Z,16.30
2018-04-11T10:16:05.014Z,16.30
2018-04-11T10:18:33.276Z,16.50
2018-04-11T10:21:02.309Z,16.70
2018-04-11T10:23:30.558Z,16.70
2018-04-11T10:25:59.592Z,17.10
2018-04-11T10:28:27.858Z,17.00
2018-04-11T10:30:56.110Z,17.20
2018-04-11T10:33:24.371Z,17.20
2018-04-11T10:35:52.614Z,17.20
2018-04-11T10:38:20.875Z,17.30
2018-04-11T10:40:49.265Z,17.30
2018-04-11T10:43:17.527Z,17.10
2018-04-11T10:45:45.792Z,17.10
2018-04-11T10:48:14.059Z,17.30
2018-04-11T10:50:42.326Z,17.30
2018-04-11T10:53:10.574Z,17.50
2018-04-11T10:55:38.805Z,17.60
2018-04-11T10:58:07.068Z,17.80
2018-04-11T11:00:35.314Z,18.00
2018-04-11T11:03:03.603Z,17.90
2018-04-11T11:05:31.862Z,17.90
2018-04-11T11:08:00.159Z,17.70
2018-04-11T11:10:29.153Z,17.50
2018-04-11T11:12:57.845Z,17.50
2018-04-11T11:15:26.255Z,17.50
2018-04-11T11:17:55.440Z,17.60
2018-04-11T11:20:23.695Z,17.70
2018-04-11T11:22:51.984Z,17.80
2018-04-11T11:25:20.291Z,17.90
2018-04-11T11:27:48.579Z,18.00
2018-04-11T11:30:16.862Z,17.90
2018-04-11T11:32:45.120Z,17.90
2018-04-11T11:35:13.404Z,18.00
2018-04-11T11:37:41.631Z,17.90
2018-04-11T11:40:09.894Z,17.90
2018-04-11T11:42:38.937Z,17.80
2018-04-11T11:45:07.219Z,17.90
2018-04-11T11:47:35.492Z,17.90
2018-04-11T11:50:03.722Z,18.00
2018-04-11T11:52:32.018Z,18.00
2018-04-11T11:55:00.262Z,17.90
2018-04-11T11:57:29.306Z,18.00
2018-04-11T11:59:57.602Z,18.00
2018-04-11T12:02:25.919Z,18.00
2018-04-11T12:04:54.937Z,18.20
2018-04-11T12:07:23.151Z,18.10
2018-04-11T12:09:51.410Z,18.20
2018-04-11T12:12:19.681Z,18.20
2018-04-11T12:14:47.954Z,18.40
2018-04-11T12:17:16.189Z,18.50
2018-04-11T12:19:44.471Z,18.60
2018-04-11T12:22:12.735Z,18.70
2018-04-11T12:24:41.753Z,18.70
2018-04-11T12:27:09.991Z,18.70
2018-04-11T12:29:39.025Z,18.80
2018-04-11T12:32:07.305Z,18.80
2018-04-11T12:34:35.545Z,19.00
2018-04-11T12:37:04.574Z,19.20
2018-04-11T12:39:32.819Z,19.20
2018-04-11T12:42:01.099Z,19.40
2018-04-11T12:44:30.154Z,19.40
2018-04-11T12:46:58.480Z,19.40
2018-04-11T12:49:26.741Z,19.30
2018-04-11T12:51:55.762Z,19.60
2018-04-11T12:54:24.099Z,19.50
2018-04-11T12:56:53.129Z,19.70
2018-04-11T12:59:21.394Z,19.60
2018-04-11T13:01:49.655Z,19.60
2018-04-11T13:04:18.669Z,19.80
2018-04-11T13:06:46.935Z,19.70
2018-04-11T13:09:15.225Z,19.70
2018-04-11T13:11:43.472Z,19.80
2018-04-11T13:14:12.493Z,19.70
2018-04-11T13:16:40.742Z,19.70
2018-04-11T13:19:09.772Z,19.70
2018-04-11T13:21:38.017Z,19.70
2018-04-11T13:24:07.039Z,19.80
2018-04-11T13:26:35.291Z,19.80
2018-04-11T13:29:03.599Z,19.90
2018-04-11T13:31:31.832Z,19.80
2018-04-11T13:34:00.867Z,19.90
2018-04-11T13:36:29.116Z,19.90
2018-04-11T13:38:58.162Z,19.70
2018-04-11T13:41:26.411Z,19.70
2018-04-11T13:43:54.680Z,19.70
2018-04-11T13:46:22.940Z,19.60
2018-04-11T13:48:52.005Z,19.80
2018-04-11T13:51:20.356Z,19.80
2018-04-11T13:53:48.602Z,20.00
2018-04-11T13:56:16.861Z,20.10
2018-04-11T13:58:45.098Z,20.00
2018-04-11T14:01:13.370Z,19.90
2018-04-11T14:03:41.643Z,19.90
2018-04-11T14:06:09.919Z,19.90
2018-04-11T14:08:38.238Z,19.90
2018-04-11T14:11:06.476Z,20.00
2018-04-11T14:13:34.748Z,20.10
2018-04-11T14:16:03.005Z,20.10
2018-04-11T14:18:31.273Z,20.10
2018-04-11T14:20:59.536Z,20.20
2018-04-11T14:23:27.808Z,20.10
2018-04-11T14:25:56.076Z,20.00
2018-04-11T14:28:25.148Z,19.80
2018-04-11T14:30:53.406Z,19.80
2018-04-11T14:33:21.693Z,20.00
2018-04-11T14:35:49.969Z,20.20
2018-04-11T14:38:18.270Z,20.20
2018-04-11T14:40:47.290Z,20.20
2018-04-11T14:43:15.598Z,20.10
2018-04-11T14:45:43.875Z,20.20
2018-04-11T14:48:12.119Z,20.20
2018-04-11T14:50:40.376Z,20.10
2018-04-11T14:53:08.626Z,19.80
2018-04-11T14:55:36.895Z,19.70
2018-04-11T14:58:05.139Z,19.60
2018-04-11T15:00:33.398Z,19.60
2018-04-11T15:03:01.663Z,19.60
2018-04-11T15:05:30.722Z,19.90
2018-04-11T15:07:59.012Z,19.90
2018-04-11T15:10:27.263Z,19.90
2018-04-11T15:12:55.535Z,19.90
2018-04-11T15:15:23.831Z,19.70
2018-04-11T15:17:52.163Z,19.70
2018-04-11T15:20:21.506Z,19.60
2018-04-11T15:22:49.768Z,19.50
2018-04-11T15:27:53.288Z,19.20
2018-04-11T15:30:21.548Z,19.20
2018-04-11T15:32:49.830Z,19.10
2018-04-11T15:35:18.119Z,19.10
2018-04-11T15:37:46.373Z,19.00
2018-04-11T15:40:14.654Z,19.00
2018-04-11T15:42:42.925Z,19.00
2018-04-11T15:45:11.627Z,19.00
2018-04-11T15:47:39.889Z,19.00
2018-04-11T15:50:08.648Z,19.10
2018-04-11T15:52:38.344Z,19.40
2018-04-11T15:55:06.615Z,19.30
2018-04-11T15:57:34.890Z,19.30
2018-04-11T16:00:03.156Z,19.20
2018-04-11T16:02:31.416Z,19.10
2018-04-11T16:04:59.675Z,19.10
2018-04-11T16:07:27.937Z,19.10
2018-04-11T16:09:56.184Z,19.00
2018-04-11T16:12:24.445Z,19.00
2018-04-11T16:14:53.212Z,19.00
2018-04-11T16:17:21.492Z,19.00
2018-04-11T16:19:49.750Z,19.00
2018-04-11T16:22:18.063Z,19.00
2018-04-11T16:24:46.339Z,18.90
2018-04-11T16:27:15.360Z,18.80
2018-04-11T16:29:43.653Z,18.80
2018-04-11T16:32:11.913Z,18.80
2018-04-11T16:34:40.167Z,18.80
2018-04-11T16:37:08.455Z,18.80
2018-04-11T16:39:36.747Z,18.70
2018-04-11T16:42:05.034Z,18.70
2018-04-11T16:44:33.303Z,18.70
2018-04-11T16:47:01.574Z,18.70
2018-04-11T16:49:29.824Z,18.70
2018-04-11T16:51:58.145Z,18.70
2018-04-11T16:54:26.442Z,18.70
2018-04-11T16:56:54.715Z,18.70
2018-04-11T16:59:22.989Z,18.60
2018-04-11T17:01:51.306Z,18.60
2018-04-11T17:04:20.363Z,18.60
2018-04-11T17:06:48.600Z,18.60
2018-04-11T17:09:16.888Z,18.60
2018-04-11T17:11:45.158Z,18.60
2018-04-11T17:14:13.414Z,18.60
2018-04-11T17:16:41.697Z,18.60
2018-04-11T17:19:09.994Z,18.50
2018-04-11T17:21:50.060Z,18.50
2018-04-11T17:24:30.248Z,18.50
2018-04-11T17:27:11.327Z,18.40
2018-04-11T17:30:04.152Z,18.40
2018-04-11T17:32:32.582Z,18.40
2018-04-11T17:35:00.875Z,18.30
2018-04-11T17:37:29.165Z,18.30
2018-04-11T17:39:57.410Z,18.30
2018-04-11T17:42:25.731Z,18.20
2018-04-11T17:44:54.034Z,18.20
2018-04-11T17:47:22.305Z,18.10
2018-04-11T17:49:50.568Z,18.00
2018-04-11T17:52:18.860Z,18.00
2018-04-11T17:54:47.145Z,17.90
2018-04-11T17:57:15.480Z,17.80
2018-04-11T17:59:43.756Z,17.80
2018-04-11T18:02:12.019Z,17.80
2018-04-11T18:04:40.323Z,17.80
2018-04-11T18:07:08.581Z,17.70
2018-04-11T18:09:36.888Z,17.70
2018-04-11T18:12:05.180Z,17.70
2018-04-11T18:14:33.455Z,17.70
2018-04-11T18:17:02.551Z,17.60
2018-04-11T18:19:30.796Z,17.60
2018-04-11T18:21:59.108Z,17.60
2018-04-11T18:24:28.140Z,17.60
2018-04-11T18:26:56.432Z,17.50
2018-04-11T18:29:24.700Z,17.50
2018-04-11T18:31:52.979Z,17.50
2018-04-11T18:34:21.277Z,17.40
2018-04-11T18:36:49.523Z,17.40
2018-04-11T18:39:18.107Z,17.40
2018-04-11T18:41:46.364Z,17.30
2018-04-11T18:44:14.708Z,17.30
2018-04-11T18:46:43.001Z,17.20
2018-04-11T18:49:12.017Z,17.20
2018-04-11T18:51:40.308Z,17.10
2018-04-11T18:54:08.578Z,17.10
2018-04-11T18:56:36.906Z,17.10
2018-04-11T18:59:05.213Z,17.10
2018-04-11T19:01:33.493Z,17.00
2018-04-11T19:04:01.833Z,17.00
2018-04-11T19:06:30.123Z,16.90
2018-04-11T19:08:59.187Z,16.80
2018-04-11T19:11:27.525Z,16.80
2018-04-11T19:13:55.824Z,16.80
2018-04-11T19:16:24.095Z,16.80
2018-04-11T19:18:52.366Z,16.70
2018-04-11T19:21:20.640Z,16.70
2018-04-11T19:23:48.944Z,16.60
2018-04-11T19:26:17.217Z,16.60
2018-04-11T19:28:45.499Z,16.40
2018-04-11T19:31:13.813Z,16.40
2018-04-11T19:33:42.034Z,16.40
2018-04-11T19:36:11.039Z,16.50
2018-04-11T19:38:39.324Z,16.40
2018-04-11T19:41:07.553Z,16.50
2018-04-11T19:43:35.843Z,16.60
2018-04-11T19:46:04.190Z,16.60
2018-04-11T19:48:32.457Z,16.70
2018-04-11T19:51:01.527Z,16.70
2018-04-11T19:53:29.842Z,16.60
2018-04-11T19:55:58.158Z,16.50
2018-04-11T19:58:26.433Z,16.50
2018-04-11T20:00:54.702Z,16.50
2018-04-11T20:03:22.987Z,16.60
2018-04-11T20:05:51.250Z,16.60
2018-04-11T20:08:19.565Z,16.60
2018-04-11T20:10:48.883Z,16.60
2018-04-11T20:13:17.265Z,16.50
2018-04-11T20:15:45.543Z,16.50
2018-04-11T20:18:13.874Z,16.50
2018-04-11T20:20:42.117Z,16.50
2018-04-11T20:23:10.381Z,16.50
2018-04-11T20:25:39.454Z,16.50
2018-04-11T20:28:07.723Z,16.40
2018-04-11T20:30:35.999Z,16.50
2018-04-11T20:33:04.289Z,16.40
2018-04-11T20:35:33.271Z,16.40
2018-04-11T20:38:01.550Z,16.30
2018-04-11T20:40:29.827Z,16.30
2018-04-11T20:42:58.102Z,16.20
2018-04-11T20:45:26.404Z,16.20
2018-04-11T20:47:54.663Z,16.00
2018-04-11T20:50:22.919Z,15.90
2018-04-11T20:52:51.216Z,15.90
2018-04-11T20:55:19.459Z,15.90
2018-04-11T20:57:47.758Z,15.80
2018-04-11T21:00:16.047Z,15.70
2018-04-11T21:02:44.312Z,15.60
2018-04-11T21:05:12.571Z,15.60
2018-04-11T21:07:40.830Z,15.70
2018-04-11T21:10:09.086Z,15.80
2018-04-11T21:12:37.342Z,15.80
2018-04-11T21:15:06.404Z,15.70
2018-04-11T21:17:34.650Z,15.70
2018-04-11T21:20:02.921Z,15.60
2018-04-11T21:22:31.184Z,15.70
2018-04-11T21:25:00.221Z,15.50
2018-04-11T21:27:28.468Z,15.50
2018-04-11T21:29:56.734Z,15.50
2018-04-11T21:32:24.999Z,15.60
2018-04-11T21:34:54.034Z,15.80
2018-04-11T21:37:22.313Z,15.80
2018-04-11T21:39:50.562Z,15.80
2018-04-11T21:42:18.812Z,15.70
2018-04-11T21:44:47.073Z,15.80
2018-04-11T21:47:15.343Z,15.90
2018-04-11T21:49:43.588Z,15.90
2018-04-11T21:52:11.874Z,15.90
2018-04-11T21:54:40.144Z,15.80
2018-04-11T21:57:08.417Z,15.90
2018-04-11T21:59:36.701Z,15.80
2018-04-11T22:02:04.966Z,15.80
2018-04-11T22:04:33.215Z,15.80
2018-04-11T22:07:01.477Z,15.80
2018-04-11T22:09:29.751Z,15.70
2018-04-11T22:11:58.774Z,15.60
2018-04-11T22:14:27.018Z,15.60
2018-04-11T22:16:56.062Z,15.60
2018-04-11T22:19:24.316Z,15.60
2018-04-11T22:21:52.571Z,15.60
2018-04-11T22:24:21.582Z,15.60
2018-04-11T22:26:49.844Z,15.60
2018-04-11T22:29:18.130Z,15.60
2018-04-11T22:31:46.387Z,15.60
2018-04-11T22:34:14.671Z,15.60
2018-04-11T22:36:42.929Z,15.60
2018-04-11T22:39:11.188Z,15.50
2018-04-11T22:41:39.435Z,15.50
2018-04-11T22:44:07.693Z,15.50
2018-04-11T22:46:35.935Z,15.50
2018-04-11T22:49:04.956Z,15.50
2018-04-11T22:51:33.202Z,15.50
2018-04-11T22:54:01.466Z,15.50
2018-04-11T22:56:29.721Z,15.40
2018-04-11T22:58:57.969Z,15.40
2018-04-11T23:01:26.229Z,15.40
2018-04-11T23:03:54.513Z,15.40
2018-04-11T23:06:22.765Z,15.40
2018-04-11T23:08:51.030Z,15.10
2018-04-11T23:11:20.055Z,15.10
2018-04-11T23:13:48.306Z,15.00
2018-04-11T23:16:17.314Z,15.00
2018-04-11T23:18:45.581Z,14.90
2018-04-11T23:21:14.624Z,15.00
2018-04-11T23:23:42.921Z,14.90
2018-04-11T23:26:11.207Z,15.00
2018-04-11T23:28:39.480Z,14.90
2018-04-11T23:31:07.762Z,14.80
2018-04-11T23:33:36.026Z,14.80
2018-04-11T23:36:04.280Z,14.70
2018-04-11T23:38:32.527Z,14.70
2018-04-11T23:41:00.812Z,14.70
2018-04-11T23:43:29.071Z,14.80
2018-04-11T23:45:57.352Z,14.80
2018-04-11T23:48:25.611Z,14.70
2018-04-11T23:50:53.857Z,14.70
2018-04-11T23:53:22.114Z,14.70
2018-04-11T23:55:50.375Z,14.80
2018-04-11T23:58:18.623Z,14.80
